Time;durP1;ratioP1;P1;durP2;ratioP2;P2;SDS_P1;SDS_P2;PMS_P1;PMS_P2;Temp;Humidity;BMP_temperature;BMP_pressure;BME280_temperature;BME280_humidity;BME280_pressure;Samples;Min_cycle;Max_cycle;Signal;HPM_P1;HPM_P2
2020/12/20 00:01:57;;;;;;;23.10;17.40;;;;;;;;;;4987022;28;20669;-85
2020/12/20 00:04:23;;;;;;;23.10;18.38;;;;;;;;;;4988514;28;20173;-84
2020/12/20 00:06:49;;;;;;;17.60;15.75;;;;;;;;;;4989642;28;20166;-85
2020/12/20 00:09:20;;;;;;;24.50;17.85;;;;;;;;;;4988162;28;20168;-83
2020/12/20 00:11:47;;;;;;;19.77;17.50;;;;;;;;;;5005939;28;20196;-84
2020/12/20 00:14:34;;;;;;;23.02;18.88;;;;;;;;;;5005401;28;20157;-84
2020/12/20 00:17:10;;;;;;;20.35;18.02;;;;;;;;;;5008022;28;20176;-84
2020/12/20 00:19:37;;;;;;;19.63;16.27;;;;;;;;;;4975901;28;20169;-85
2020/12/20 00:22:03;;;;;;;20.98;17.67;;;;;;;;;;5008510;28;20184;-83
2020/12/20 00:24:29;;;;;;;21.88;17.80;;;;;;;;;;4972712;28;20222;-85
2020/12/20 00:26:57;;;;;;;21.85;17.90;;;;;;;;;;4985667;28;20173;-84
2020/12/20 00:29:30;;;;;;;22.15;18.08;;;;;;;;;;4985573;28;20172;-84
2020/12/20 00:31:56;;;;;;;22.95;17.33;;;;;;;;;;4987489;28;20729;-84
2020/12/20 00:34:22;;;;;;;22.25;18.88;;;;;;;;;;4984943;28;20665;-84
2020/12/20 00:36:49;;;;;;;20.70;18.42;;;;;;;;;;4987305;28;20172;-84
2020/12/20 00:39:16;;;;;;;26.75;19.77;;;;;;;;;;4979332;28;20184;-84
2020/12/20 00:41:42;;;;;;;22.00;17.95;;;;;;;;;;5000297;28;20275;-84
2020/12/20 00:44:09;;;;;;;21.52;16.67;;;;;;;;;;4992072;28;20198;-84
2020/12/20 00:46:36;;;;;;;23.95;18.15;;;;;;;;;;5005984;28;20173;-83
2020/12/20 00:49:05;;;;;;;20.42;16.35;;;;;;;;;;4992289;28;20185;-84
2020/12/20 00:51:32;;;;;;;21.75;16.90;;;;;;;;;;5006442;28;20296;-84
2020/12/20 00:53:59;;;;;;;24.92;18.55;;;;;;;;;;4985128;28;20157;-84
2020/12/20 00:56:25;;;;;;;19.05;16.50;;;;;;;;;;5002332;28;20188;-84
2020/12/20 00:58:51;;;;;;;22.17;17.75;;;;;;;;;;5003346;28;20176;-84
2020/12/20 01:01:18;;;;;;;19.25;17.17;;;;;;;;;;5004678;28;20204;-84
2020/12/20 01:03:44;;;;;;;21.60;18.33;;;;;;;;;;5007562;28;20651;-84
2020/12/20 01:06:21;;;;;;;21.52;18.70;;;;;;;;;;5009985;28;20223;-84
2020/12/20 01:08:53;;;;;;;23.70;16.45;;;;;;;;;;5007770;28;20156;-84
2020/12/20 01:11:21;;;;;;;20.75;17.30;;;;;;;;;;4991495;28;20302;-84
2020/12/20 01:13:49;;;;;;;21.70;17.40;;;;;;;;;;5006183;28;20220;-84
2020/12/20 01:16:19;;;;;;;21.25;17.17;;;;;;;;;;4990852;28;20172;-83
2020/12/20 01:18:46;;;;;;;17.88;15.50;;;;;;;;;;4991100;28;20162;-83
2020/12/20 01:21:17;;;;;;;20.65;16.17;;;;;;;;;;4991558;28;20201;-83
2020/12/20 01:23:46;;;;;;;20.42;17.75;;;;;;;;;;4992083;28;20188;-84
2020/12/20 01:26:12;;;;;;;19.90;17.90;;;;;;;;;;4997833;28;20170;-84
2020/12/20 01:28:39;;;;;;;20.05;16.63;;;;;;;;;;5005306;28;20175;-84
2020/12/20 01:31:06;;;;;;;22.60;17.35;;;;;;;;;;5018915;28;20271;-84
2020/12/20 01:33:46;;;;;;;22.42;18.58;;;;;;;;;;5016701;28;20176;-83
2020/12/20 01:36:13;;;;;;;23.65;18.30;;;;;;;;;;5012906;28;20159;-84
2020/12/20 01:38:44;;;;;;;25.02;20.23;;;;;;;;;;5013131;28;20169;-84
2020/12/20 01:41:11;;;;;;;20.48;17.17;;;;;;;;;;4995804;28;20208;-83
2020/12/20 01:43:40;;;;;;;19.95;17.27;;;;;;;;;;5008365;28;20198;-84
2020/12/20 01:46:11;;;;;;;24.52;19.27;;;;;;;;;;4976148;28;20253;-84
2020/12/20 01:48:39;;;;;;;20.88;17.50;;;;;;;;;;4991871;28;20200;-83
2020/12/20 01:51:06;;;;;;;19.45;16.70;;;;;;;;;;4993085;28;20209;-83
2020/12/20 01:53:32;;;;;;;22.05;19.00;;;;;;;;;;4991992;28;20177;-83
2020/12/20 01:56:00;;;;;;;24.10;18.70;;;;;;;;;;4992590;28;20192;-83
2020/12/20 01:58:29;;;;;;;19.38;16.38;;;;;;;;;;4977387;28;20165;-83
2020/12/20 02:01:05;;;;;;;25.15;19.33;;;;;;;;;;4989441;28;20207;-83
2020/12/20 02:03:54;;;;;;;21.50;17.98;;;;;;;;;;4991114;28;20216;-83
2020/12/20 02:06:28;;;;;;;22.10;17.10;;;;;;;;;;4975988;28;20176;-84
2020/12/20 02:08:59;;;;;;;22.70;18.95;;;;;;;;;;4991913;28;20161;-83
2020/12/20 02:11:28;;;;;;;22.17;19.00;;;;;;;;;;4981965;28;20719;-84
2020/12/20 02:13:57;;;;;;;20.10;18.00;;;;;;;;;;4979268;28;20161;-84
2020/12/20 02:16:33;;;;;;;20.10;17.50;;;;;;;;;;4979312;28;20169;-82
2020/12/20 02:18:59;;;;;;;21.10;18.50;;;;;;;;;;4995414;28;20242;-84
2020/12/20 02:21:26;;;;;;;25.63;19.25;;;;;;;;;;4996543;28;20217;-83
2020/12/20 02:24:00;;;;;;;24.25;19.02;;;;;;;;;;4979425;28;20158;-84
2020/12/20 02:26:34;;;;;;;22.20;18.15;;;;;;;;;;4996755;28;20560;-83
2020/12/20 02:29:01;;;;;;;22.42;20.27;;;;;;;;;;4995835;28;20194;-84
2020/12/20 02:31:29;;;;;;;28.80;24.02;;;;;;;;;;4981514;28;20201;-84
2020/12/20 02:33:57;;;;;;;25.67;20.05;;;;;;;;;;4995694;28;20204;-84
2020/12/20 02:36:25;;;;;;;24.58;21.00;;;;;;;;;;4996288;28;20188;-84
2020/12/20 02:38:52;;;;;;;27.38;19.80;;;;;;;;;;4991727;28;20176;-84
2020/12/20 02:41:38;;;;;;;24.48;18.23;;;;;;;;;;4985196;28;20308;-84
2020/12/20 02:44:07;;;;;;;21.88;19.13;;;;;;;;;;4983023;28;20176;-84
2020/12/20 02:46:36;;;;;;;24.58;19.48;;;;;;;;;;4984076;28;20262;-84
2020/12/20 02:49:08;;;;;;;21.95;19.55;;;;;;;;;;4985488;28;20176;-84
2020/12/20 02:51:38;;;;;;;24.10;19.10;;;;;;;;;;4986402;28;20206;-84
2020/12/20 02:54:05;;;;;;;22.17;18.65;;;;;;;;;;4985915;28;20157;-84
2020/12/20 02:56:41;;;;;;;22.50;20.10;;;;;;;;;;5002512;28;20157;-84
2020/12/20 02:59:08;;;;;;;22.67;19.67;;;;;;;;;;4984014;28;20248;-84
2020/12/20 03:01:35;;;;;;;24.63;19.02;;;;;;;;;;4997990;28;20197;-83
2020/12/20 03:04:04;;;;;;;21.02;18.10;;;;;;;;;;5004662;28;20189;-84
2020/12/20 03:06:30;;;;;;;22.13;18.15;;;;;;;;;;5018260;28;20167;-84
2020/12/20 03:08:59;;;;;;;24.83;19.52;;;;;;;;;;5018257;28;20201;-84
2020/12/20 03:11:25;;;;;;;23.65;18.88;;;;;;;;;;4985233;28;20270;-84
2020/12/20 03:13:52;;;;;;;23.83;20.27;;;;;;;;;;4986021;28;20165;-84
2020/12/20 03:16:18;;;;;;;24.20;20.60;;;;;;;;;;4967590;28;20174;-84
2020/12/20 03:18:44;;;;;;;24.15;19.55;;;;;;;;;;4983233;28;20177;-84
2020/12/20 03:21:10;;;;;;;24.85;18.55;;;;;;;;;;4967445;28;20224;-84
2020/12/20 03:23:45;;;;;;;27.00;20.23;;;;;;;;;;4983986;28;20229;-84
2020/12/20 03:26:28;;;;;;;25.13;19.40;;;;;;;;;;4985343;28;20161;-84
2020/12/20 03:29:17;;;;;;;24.98;18.70;;;;;;;;;;4980648;28;20213;-84
2020/12/20 03:32:06;;;;;;;23.85;20.40;;;;;;;;;;4984692;28;20682;-84
2020/12/20 03:34:44;;;;;;;24.15;19.98;;;;;;;;;;4983207;28;20169;-84
2020/12/20 03:37:21;;;;;;;24.70;20.30;;;;;;;;;;4983428;28;20171;-84
2020/12/20 03:40:01;;;;;;;25.20;19.50;;;;;;;;;;4967112;28;20200;-84
2020/12/20 03:42:30;;;;;;;29.42;20.92;;;;;;;;;;4983884;28;20165;-84
2020/12/20 03:44:57;;;;;;;25.30;22.60;;;;;;;;;;4986734;28;20173;-84
2020/12/20 03:47:23;;;;;;;20.27;17.00;;;;;;;;;;4984194;28;20165;-84
2020/12/20 03:49:49;;;;;;;24.88;19.80;;;;;;;;;;4984278;28;20231;-84
2020/12/20 03:52:17;;;;;;;22.70;20.30;;;;;;;;;;4983309;28;20649;-84
2020/12/20 03:54:55;;;;;;;25.67;19.73;;;;;;;;;;4984380;28;20237;-84
2020/12/20 03:57:23;;;;;;;30.67;22.10;;;;;;;;;;4983666;28;20672;-83
2020/12/20 03:59:49;;;;;;;23.83;19.52;;;;;;;;;;4986699;28;20159;-83
2020/12/20 04:02:16;;;;;;;24.83;21.20;;;;;;;;;;4993795;28;20229;-83
2020/12/20 04:04:43;;;;;;;21.90;18.30;;;;;;;;;;4983248;28;20665;-83
2020/12/20 04:07:09;;;;;;;22.20;18.65;;;;;;;;;;4985200;28;20201;-83
2020/12/20 04:09:42;;;;;;;22.75;19.40;;;;;;;;;;4985323;28;20169;-83
2020/12/20 04:12:22;;;;;;;24.80;20.30;;;;;;;;;;4982977;28;20179;-83
2020/12/20 04:14:49;;;;;;;21.55;17.85;;;;;;;;;;4999979;28;20171;-84
2020/12/20 04:17:18;;;;;;;21.90;18.38;;;;;;;;;;4999500;28;20173;-84
2020/12/20 04:19:44;;;;;;;18.98;16.58;;;;;;;;;;4983022;28;20195;-84
2020/12/20 04:22:26;;;;;;;23.67;19.17;;;;;;;;;;5000026;28;20161;-84
2020/12/20 04:25:10;;;;;;;23.55;19.90;;;;;;;;;;5003796;28;20163;-84
2020/12/20 04:27:56;;;;;;;21.67;19.33;;;;;;;;;;5009253;28;20176;-84
2020/12/20 04:30:24;;;;;;;24.10;19.20;;;;;;;;;;5007810;28;20216;-82
2020/12/20 04:32:51;;;;;;;25.05;22.05;;;;;;;;;;5009354;28;20248;-82
2020/12/20 04:35:17;;;;;;;26.30;21.05;;;;;;;;;;5009926;28;20169;-83
2020/12/20 04:37:52;;;;;;;27.40;22.08;;;;;;;;;;5008812;28;20196;-83
2020/12/20 04:40:27;;;;;;;26.02;20.85;;;;;;;;;;4997997;28;20295;-82
2020/12/20 04:42:59;;;;;;;27.00;20.52;;;;;;;;;;4995117;28;20165;-82
2020/12/20 04:45:25;;;;;;;23.85;21.08;;;;;;;;;;5000863;28;20150;-83
2020/12/20 04:47:52;;;;;;;28.00;22.33;;;;;;;;;;5016576;28;20229;-83
2020/12/20 04:50:22;;;;;;;26.92;22.77;;;;;;;;;;5009548;28;20202;-83
2020/12/20 04:52:50;;;;;;;23.75;19.50;;;;;;;;;;4999048;28;20163;-83
2020/12/20 04:55:30;;;;;;;28.85;21.95;;;;;;;;;;4998843;28;20176;-83
2020/12/20 04:58:20;;;;;;;30.45;22.52;;;;;;;;;;5000921;28;20165;-83
2020/12/20 05:00:47;;;;;;;30.02;24.50;;;;;;;;;;4986747;28;20205;-83
2020/12/20 05:03:16;;;;;;;27.98;23.25;;;;;;;;;;4991621;28;20177;-82
2020/12/20 05:05:47;;;;;;;29.65;21.70;;;;;;;;;;4998567;28;20177;-83
2020/12/20 05:08:14;;;;;;;28.58;23.45;;;;;;;;;;4998135;28;20188;-83
2020/12/20 05:10:41;;;;;;;27.65;23.80;;;;;;;;;;4998233;28;20575;-83
2020/12/20 05:13:09;;;;;;;34.20;27.23;;;;;;;;;;4998496;28;20180;-83
2020/12/20 05:15:35;;;;;;;33.10;25.10;;;;;;;;;;4982326;28;20193;-83
2020/12/20 05:18:14;;;;;;;36.53;26.27;;;;;;;;;;5002220;28;20192;-83
2020/12/20 05:20:50;;;;;;;29.85;24.33;;;;;;;;;;5001781;28;20666;-83
2020/12/20 05:23:20;;;;;;;36.90;28.50;;;;;;;;;;4984578;28;20179;-83
2020/12/20 05:25:51;;;;;;;30.90;26.17;;;;;;;;;;4982997;28;20177;-83
2020/12/20 05:28:22;;;;;;;32.88;27.35;;;;;;;;;;4983045;28;20192;-83
2020/12/20 05:31:08;;;;;;;31.50;26.83;;;;;;;;;;4998832;28;20232;-83
2020/12/20 05:33:58;;;;;;;39.33;27.83;;;;;;;;;;5000570;28;20220;-83
2020/12/20 05:36:31;;;;;;;38.30;28.80;;;;;;;;;;4993235;28;20641;-83
2020/12/20 05:39:37;;;;;;;33.83;27.02;;;;;;;;;;4986372;28;20203;-83
2020/12/20 05:42:14;;;;;;;37.97;29.25;;;;;;;;;;4987147;23;20319;-81
2020/12/20 05:44:40;;;;;;;39.78;29.88;;;;;;;;;;4984695;28;20260;-81
2020/12/20 05:47:16;;;;;;;39.58;25.92;;;;;;;;;;4986543;28;20164;-81
2020/12/20 05:49:45;;;;;;;31.05;26.55;;;;;;;;;;4985982;28;20173;-81
2020/12/20 05:52:16;;;;;;;24.98;21.80;;;;;;;;;;4986608;28;20188;-82
2020/12/20 05:54:43;;;;;;;29.50;26.20;;;;;;;;;;5003401;28;20173;-82
2020/12/20 05:57:36;;;;;;;38.50;26.98;;;;;;;;;;4982510;28;20172;-82
2020/12/20 06:00:03;;;;;;;31.05;26.55;;;;;;;;;;4965034;28;20217;-83
2020/12/20 06:02:39;;;;;;;31.45;25.75;;;;;;;;;;4983287;28;20165;-82
2020/12/20 06:05:05;;;;;;;30.75;24.33;;;;;;;;;;4983601;28;20181;-81
2020/12/20 06:07:34;;;;;;;28.50;25.02;;;;;;;;;;4985145;28;20173;-83
2020/12/20 06:10:01;;;;;;;31.50;24.48;;;;;;;;;;4983662;28;20205;-81
2020/12/20 06:12:39;;;;;;;34.00;25.15;;;;;;;;;;4985538;28;20259;-82
2020/12/20 06:15:10;;;;;;;26.88;22.50;;;;;;;;;;4986368;28;20168;-82
2020/12/20 06:17:43;;;;;;;25.90;21.40;;;;;;;;;;4989297;28;20157;-82
2020/12/20 06:20:16;;;;;;;26.17;22.73;;;;;;;;;;4987130;28;20161;-82
2020/12/20 06:22:52;;;;;;;35.10;25.70;;;;;;;;;;4988146;28;20172;-80
2020/12/20 06:25:23;;;;;;;31.55;24.58;;;;;;;;;;4988530;28;20161;-80
2020/12/20 06:27:49;;;;;;;28.58;23.55;;;;;;;;;;4989811;28;20169;-81
2020/12/20 06:30:16;;;;;;;26.02;23.30;;;;;;;;;;4977965;28;20197;-82
2020/12/20 06:32:43;;;;;;;30.55;23.90;;;;;;;;;;4994006;28;20176;-82
2020/12/20 06:35:19;;;;;;;30.45;23.55;;;;;;;;;;4979377;28;20177;-80
2020/12/20 06:37:45;;;;;;;28.10;25.13;;;;;;;;;;4976142;28;20196;-81
2020/12/20 06:40:12;;;;;;;28.65;22.90;;;;;;;;;;4986096;28;20173;-80
2020/12/20 06:42:42;;;;;;;30.27;26.65;;;;;;;;;;4975051;28;20185;-79
2020/12/20 06:45:21;;;;;;;35.33;26.02;;;;;;;;;;4973314;28;20180;-80
2020/12/20 06:47:48;;;;;;;26.83;24.00;;;;;;;;;;4991637;28;20228;-78
2020/12/20 06:50:14;;;;;;;30.17;24.63;;;;;;;;;;4975466;28;20202;-79
2020/12/20 06:52:45;;;;;;;32.22;25.55;;;;;;;;;;4975795;28;20237;-81
2020/12/20 06:55:12;;;;;;;34.78;29.25;;;;;;;;;;4993097;28;20169;-79
2020/12/20 06:57:57;;;;;;;30.17;23.38;;;;;;;;;;4989661;28;20178;-79
2020/12/20 07:00:42;;;;;;;31.33;24.70;;;;;;;;;;4990540;28;20163;-79
2020/12/20 07:03:08;;;;;;;31.90;25.98;;;;;;;;;;4990461;28;20180;-79
2020/12/20 07:05:39;;;;;;;28.33;25.27;;;;;;;;;;4992647;28;20165;-80
2020/12/20 07:08:06;;;;;;;35.33;28.52;;;;;;;;;;4997417;28;20173;-82
2020/12/20 07:10:50;;;;;;;35.50;27.67;;;;;;;;;;5007213;28;20239;-83
2020/12/20 07:13:17;;;;;;;31.25;27.85;;;;;;;;;;4992975;28;20196;-84
2020/12/20 07:15:46;;;;;;;32.83;26.48;;;;;;;;;;4985823;28;20200;-83
2020/12/20 07:18:31;;;;;;;34.67;26.83;;;;;;;;;;4983436;28;20196;-85
2020/12/20 07:20:57;;;;;;;29.83;26.60;;;;;;;;;;4999971;28;20192;-82
2020/12/20 07:23:24;;;;;;;34.20;26.67;;;;;;;;;;4979695;28;20203;-80
2020/12/20 07:25:55;;;;;;;36.85;27.50;;;;;;;;;;4985471;28;20245;-80
2020/12/20 07:28:23;;;;;;;33.88;25.75;;;;;;;;;;5000255;28;20177;-81
2020/12/20 07:30:50;;;;;;;32.55;29.05;;;;;;;;;;4984397;28;20204;-82
2020/12/20 07:33:17;;;;;;;31.75;28.38;;;;;;;;;;4987407;28;20542;-81
2020/12/20 07:35:47;;;;;;;33.83;24.95;;;;;;;;;;4970102;28;20176;-82
2020/12/20 07:38:13;;;;;;;32.10;27.67;;;;;;;;;;4979684;28;20181;-82
2020/12/20 07:40:39;;;;;;;33.33;28.30;;;;;;;;;;4991170;28;20236;-81
2020/12/20 07:43:06;;;;;;;34.83;29.10;;;;;;;;;;4965723;28;20492;-81
2020/12/20 07:45:32;;;;;;;37.58;28.65;;;;;;;;;;4964395;28;20189;-82
2020/12/20 07:47:58;;;;;;;31.85;26.27;;;;;;;;;;5001494;28;20177;-85
2020/12/20 07:50:25;;;;;;;29.63;25.55;;;;;;;;;;4967875;28;20220;-83
2020/12/20 07:52:51;;;;;;;36.97;30.20;;;;;;;;;;4984988;28;20181;-80
2020/12/20 07:55:18;;;;;;;35.15;26.42;;;;;;;;;;4971990;28;20188;-81
2020/12/20 07:57:46;;;;;;;35.92;27.35;;;;;;;;;;4993129;28;20181;-80
2020/12/20 08:00:12;;;;;;;33.50;28.83;;;;;;;;;;4969853;28;20216;-80
2020/12/20 08:02:41;;;;;;;34.53;28.35;;;;;;;;;;4982364;28;20188;-80
2020/12/20 08:05:09;;;;;;;32.78;27.48;;;;;;;;;;4984172;28;20184;-80
2020/12/20 08:07:35;;;;;;;34.78;28.20;;;;;;;;;;4983966;28;20263;-81
2020/12/20 08:10:02;;;;;;;32.88;26.60;;;;;;;;;;4984391;28;20200;-80
2020/12/20 08:12:28;;;;;;;34.47;27.38;;;;;;;;;;4986166;28;20275;-81
2020/12/20 08:15:20;;;;;;;31.85;26.52;;;;;;;;;;4959428;28;20704;-80
2020/12/20 08:17:46;;;;;;;35.67;28.15;;;;;;;;;;5000540;28;20223;-81
2020/12/20 08:20:14;;;;;;;34.45;30.25;;;;;;;;;;4983952;28;20194;-82
2020/12/20 08:22:40;;;;;;;29.17;25.80;;;;;;;;;;4976601;28;20204;-81
2020/12/20 08:25:08;;;;;;;39.10;28.50;;;;;;;;;;5001726;28;20181;-83
2020/12/20 08:27:36;;;;;;;29.65;26.33;;;;;;;;;;5003254;28;20244;-81
2020/12/20 08:30:07;;;;;;;30.45;26.02;;;;;;;;;;4985625;28;20208;-79
2020/12/20 08:32:34;;;;;;;32.22;26.27;;;;;;;;;;4976302;28;20294;-81
2020/12/20 08:35:14;;;;;;;33.65;25.08;;;;;;;;;;4984126;28;20245;-82
2020/12/20 08:37:41;;;;;;;32.03;25.65;;;;;;;;;;4989981;28;20173;-82
2020/12/20 08:40:17;;;;;;;32.20;26.23;;;;;;;;;;5009982;28;20169;-82
2020/12/20 08:42:44;;;;;;;32.83;26.55;;;;;;;;;;5011085;28;20204;-82
2020/12/20 08:45:17;;;;;;;35.20;27.65;;;;;;;;;;5000224;28;20205;-81
2020/12/20 08:47:44;;;;;;;30.80;25.80;;;;;;;;;;4979433;28;20192;-81
2020/12/20 08:50:11;;;;;;;30.17;24.80;;;;;;;;;;5003599;28;20228;-83
2020/12/20 08:52:37;;;;;;;33.00;26.17;;;;;;;;;;4981992;28;20180;-80
2020/12/20 08:55:04;;;;;;;32.58;26.02;;;;;;;;;;4984403;28;20212;-81
2020/12/20 08:57:31;;;;;;;211.10;129.63;;;;;;;;;;4995782;28;20175;-82
2020/12/20 09:00:13;;;;;;;47.53;36.72;;;;;;;;;;5000245;28;20181;-81
2020/12/20 09:10:14;;;;;;;28.73;22.20;;;;;;;;;;4962306;29;20164;-81
2020/12/20 09:13:08;;;;;;;27.98;21.95;;;;;;;;;;4914920;29;21043;-83
2020/12/20 09:15:41;;;;;;;29.80;22.55;;;;;;;;;;4936958;29;20192;-81
2020/12/20 09:24:43;;;;;;;25.55;20.90;;;;;;;;;;4981568;28;20205;-82
2020/12/20 09:27:38;;;;;;;;;;;;;;;;;;;;;
2020/12/20 09:30:50;;;;;;;;;;;;;;;;;;;;;
2020/12/20 09:34:10;;;;;;;;;;;;;;;;;;;;;
2020/12/20 09:37:38;;;;;;;25.20;21.52;;;;;;;;;;4962879;28;20181;-83
2020/12/20 09:40:43;;;;;;;25.48;20.77;;;;;;;;;;4966971;28;20207;-81
2020/12/20 09:43:41;;;;;;;;;;;;;;;;;;;;;
2020/12/20 09:46:17;;;;;;;21.60;19.27;;;;;;;;;;4974251;28;20184;-81
2020/12/20 09:48:57;;;;;;;24.85;20.38;;;;;;;;;;4965361;28;20316;-81
2020/12/20 09:51:24;;;;;;;23.50;20.98;;;;;;;;;;4966750;28;20243;-80
2020/12/20 09:53:53;;;;;;;25.25;19.92;;;;;;;;;;4979683;28;20248;-82
2020/12/20 09:56:26;;;;;;;22.15;18.58;;;;;;;;;;4964173;28;20173;-81
2020/12/20 09:58:57;;;;;;;26.27;20.20;;;;;;;;;;4978340;28;20184;-82
2020/12/20 10:01:26;;;;;;;23.27;20.08;;;;;;;;;;4977519;28;20344;-82
2020/12/20 10:03:52;;;;;;;22.25;18.17;;;;;;;;;;4977808;28;20200;-83
2020/12/20 10:06:18;;;;;;;18.42;16.42;;;;;;;;;;4980510;28;20252;-83
2020/12/20 10:08:48;;;;;;;21.65;16.27;;;;;;;;;;4997269;28;20590;-80
2020/12/20 10:11:19;;;;;;;22.67;19.10;;;;;;;;;;4983648;28;20240;-83
2020/12/20 10:13:47;;;;;;;21.95;18.05;;;;;;;;;;4976460;28;20244;-81
2020/12/20 10:16:17;;;;;;;21.90;17.70;;;;;;;;;;4978894;28;20173;-83
2020/12/20 10:18:45;;;;;;;19.93;16.70;;;;;;;;;;4977987;28;20302;-82
2020/12/20 10:21:12;;;;;;;23.23;17.05;;;;;;;;;;4946876;28;20543;-82
2020/12/20 10:23:39;;;;;;;19.30;16.60;;;;;;;;;;4984190;28;20208;-82
2020/12/20 10:26:08;;;;;;;20.98;17.38;;;;;;;;;;4980438;28;20436;-81
2020/12/20 10:28:40;;;;;;;18.10;16.17;;;;;;;;;;4964314;28;20185;-80
2020/12/20 10:31:06;;;;;;;19.53;17.43;;;;;;;;;;4978660;28;20460;-82
2020/12/20 10:33:32;;;;;;;19.00;15.67;;;;;;;;;;4979837;28;20852;-81
2020/12/20 10:35:59;;;;;;;18.23;16.37;;;;;;;;;;4968151;28;20509;-82
2020/12/20 10:38:25;;;;;;;18.37;15.87;;;;;;;;;;4978452;28;20425;-81
2020/12/20 10:41:01;;;;;;;21.87;18.37;;;;;;;;;;4965700;28;20500;-80
2020/12/20 10:43:27;;;;;;;21.23;18.63;;;;;;;;;;4965439;29;20445;-81
2020/12/20 10:45:57;;;;;;;20.50;16.80;;;;;;;;;;4948693;29;20432;-83
2020/12/20 10:48:23;;;;;;;21.20;16.27;;;;;;;;;;4967110;29;20418;-82
2020/12/20 10:50:49;;;;;;;20.07;17.93;;;;;;;;;;4970313;28;20465;-82
2020/12/20 10:53:15;;;;;;;16.73;15.03;;;;;;;;;;4970846;29;20413;-82
2020/12/20 10:55:41;;;;;;;16.40;14.37;;;;;;;;;;4974596;28;20451;-80
2020/12/20 10:58:07;;;;;;;17.17;15.33;;;;;;;;;;4978614;28;20544;-82
2020/12/20 11:00:33;;;;;;;24.60;15.67;;;;;;;;;;4978946;28;20440;-83
2020/12/20 11:03:00;;;;;;;18.63;15.37;;;;;;;;;;4966949;29;20461;-80
2020/12/20 11:05:29;;;;;;;32.57;26.10;;;;;;;;;;4980684;28;20418;-84
2020/12/20 11:08:00;;;;;;;21.03;16.27;;;;;;;;;;4980617;28;20533;-83
2020/12/20 11:10:42;;;;;;;;;;;;;;;;;;;;;
2020/12/20 11:13:40;;;;;;;;;;;;;;;;;;;;;
2020/12/20 11:16:28;;;;;;;20.53;17.83;;;;;;;;;;4975028;28;20511;-81
2020/12/20 11:18:54;;;;;;;26.30;18.13;;;;;;;;;;4970735;28;20432;-81
2020/12/20 11:21:20;;;;;;;18.53;15.60;;;;;;;;;;4981885;28;20457;-82
2020/12/20 11:23:47;;;;;;;18.53;15.67;;;;;;;;;;4984080;28;20432;-81
2020/12/20 11:26:14;;;;;;;19.13;15.30;;;;;;;;;;4983979;28;20447;-81
2020/12/20 11:28:41;;;;;;;20.33;17.70;;;;;;;;;;4967401;28;20416;-83
2020/12/20 11:31:08;;;;;;;19.23;16.93;;;;;;;;;;4984933;28;20883;-82
2020/12/20 11:33:36;;;;;;;16.90;14.43;;;;;;;;;;4980046;28;20419;-83
2020/12/20 11:36:02;;;;;;;18.02;16.08;;;;;;;;;;4963343;28;20405;-82
2020/12/20 11:38:31;;;;;;;17.83;15.93;;;;;;;;;;4981648;28;20200;-82
2020/12/20 11:40:58;;;;;;;19.60;15.00;;;;;;;;;;5006752;23;20470;-83
2020/12/20 11:43:24;;;;;;;18.23;15.10;;;;;;;;;;5005531;28;20391;-84
2020/12/20 11:45:50;;;;;;;20.17;15.60;;;;;;;;;;5010065;28;20427;-84
2020/12/20 11:48:29;;;;;;;17.90;15.50;;;;;;;;;;5002437;28;20704;-84
2020/12/20 11:50:57;;;;;;;21.40;18.07;;;;;;;;;;4988463;28;20484;-84
2020/12/20 11:53:23;;;;;;;20.43;14.50;;;;;;;;;;4999920;28;20428;-84
2020/12/20 11:55:50;;;;;;;18.53;16.53;;;;;;;;;;4986552;28;20460;-84
2020/12/20 11:58:16;;;;;;;19.37;15.57;;;;;;;;;;4987470;28;20411;-85
2020/12/20 12:00:46;;;;;;;15.07;13.50;;;;;;;;;;4986467;28;20452;-84
2020/12/20 12:03:13;;;;;;;18.20;14.53;;;;;;;;;;4985913;28;20500;-84
2020/12/20 12:05:44;;;;;;;18.43;15.20;;;;;;;;;;4986385;28;20432;-84
2020/12/20 12:08:11;;;;;;;19.23;15.33;;;;;;;;;;4990270;28;20443;-85
2020/12/20 12:10:42;;;;;;;17.87;15.40;;;;;;;;;;4999062;28;20444;-83
2020/12/20 12:13:08;;;;;;;19.93;15.30;;;;;;;;;;5008946;28;20484;-83
2020/12/20 12:15:35;;;;;;;19.57;15.37;;;;;;;;;;5013575;28;20416;-84
2020/12/20 12:18:01;;;;;;;17.60;15.87;;;;;;;;;;4992397;28;21006;-83
2020/12/20 12:20:27;;;;;;;21.53;19.33;;;;;;;;;;5006614;28;20428;-83
2020/12/20 12:22:53;;;;;;;18.87;15.17;;;;;;;;;;5008650;28;20429;-83
2020/12/20 12:25:19;;;;;;;18.80;16.53;;;;;;;;;;5009720;28;20412;-83
2020/12/20 12:27:46;;;;;;;15.70;14.03;;;;;;;;;;5012046;28;20426;-84
2020/12/20 12:30:12;;;;;;;18.97;15.73;;;;;;;;;;5009398;28;20536;-83
2020/12/20 12:32:38;;;;;;;16.07;14.30;;;;;;;;;;4989216;28;20462;-84
2020/12/20 12:35:06;;;;;;;30.70;16.20;;;;;;;;;;5004214;28;20480;-83
2020/12/20 12:37:32;;;;;;;19.63;16.00;;;;;;;;;;5015663;28;21087;-84
2020/12/20 12:39:58;;;;;;;16.57;14.00;;;;;;;;;;5006759;28;20507;-84
2020/12/20 12:42:25;;;;;;;17.60;15.70;;;;;;;;;;5018527;28;20470;-84
2020/12/20 12:44:51;;;;;;;15.90;13.73;;;;;;;;;;5002746;28;20463;-83
2020/12/20 12:47:17;;;;;;;17.53;14.97;;;;;;;;;;5000912;28;20416;-82
2020/12/20 12:49:43;;;;;;;16.77;15.07;;;;;;;;;;5000170;28;20433;-84
2020/12/20 12:52:10;;;;;;;18.43;16.53;;;;;;;;;;4991459;28;20467;-83
2020/12/20 12:54:36;;;;;;;23.60;15.10;;;;;;;;;;5009928;28;20480;-83
2020/12/20 12:57:03;;;;;;;18.20;16.00;;;;;;;;;;4999010;28;20421;-83
2020/12/20 12:59:30;;;;;;;18.53;15.00;;;;;;;;;;4999671;28;20436;-84
2020/12/20 13:01:56;;;;;;;19.40;16.57;;;;;;;;;;5014992;28;20456;-83
2020/12/20 13:04:23;;;;;;;18.27;16.50;;;;;;;;;;4995165;28;20429;-83
2020/12/20 13:06:52;;;;;;;36.63;26.83;;;;;;;;;;4995396;28;20507;-84
2020/12/20 13:09:18;;;;;;;17.93;15.13;;;;;;;;;;4999218;28;20447;-84
2020/12/20 13:11:44;;;;;;;20.77;14.53;;;;;;;;;;5012573;28;20551;-84
2020/12/20 13:14:11;;;;;;;18.13;15.23;;;;;;;;;;5013559;28;20439;-85
2020/12/20 13:16:37;;;;;;;15.67;13.53;;;;;;;;;;5013610;28;20408;-84
2020/12/20 13:19:03;;;;;;;13.23;11.67;;;;;;;;;;5012552;28;20428;-84
2020/12/20 13:21:30;;;;;;;15.90;13.90;;;;;;;;;;5012196;28;20455;-84
2020/12/20 13:23:56;;;;;;;16.10;14.70;;;;;;;;;;5009531;28;20592;-84
2020/12/20 13:26:23;;;;;;;15.40;13.10;;;;;;;;;;5007715;28;20435;-83
2020/12/20 13:28:50;;;;;;;16.30;13.53;;;;;;;;;;5010567;28;20423;-83
2020/12/20 13:31:18;;;;;;;16.40;13.13;;;;;;;;;;5011010;28;20451;-84
2020/12/20 13:33:44;;;;;;;15.27;13.40;;;;;;;;;;5014190;28;20428;-85
2020/12/20 13:36:10;;;;;;;14.50;12.70;;;;;;;;;;4986102;28;20413;-84
2020/12/20 13:38:37;;;;;;;14.37;11.80;;;;;;;;;;5001470;28;20439;-84
2020/12/20 13:41:03;;;;;;;15.13;11.50;;;;;;;;;;5004008;28;20466;-85
2020/12/20 13:44:14;;;;;;;14.67;13.13;;;;;;;;;;5001247;28;20428;-86
2020/12/20 13:46:34;;;;;;;15.53;14.03;;;;;;;;;;4999177;28;20435;-86
2020/12/20 13:49:00;;;;;;;17.67;15.87;;;;;;;;;;5003851;28;21007;-83
2020/12/20 13:51:30;;;;;;;16.37;14.30;;;;;;;;;;4996348;28;20467;-82
2020/12/20 13:53:56;;;;;;;15.70;14.10;;;;;;;;;;5002454;28;20464;-82
2020/12/20 13:56:24;;;;;;;19.63;14.30;;;;;;;;;;5001534;28;20425;-82
2020/12/20 13:58:51;;;;;;;15.00;13.53;;;;;;;;;;5003304;28;20498;-83
2020/12/20 14:01:17;;;;;;;15.40;13.80;;;;;;;;;;5000116;28;20494;-84
2020/12/20 14:03:43;;;;;;;17.93;14.13;;;;;;;;;;5006033;28;20455;-83
2020/12/20 14:06:09;;;;;;;15.70;14.10;;;;;;;;;;5002508;28;20489;-83
2020/12/20 14:08:35;;;;;;;22.33;14.57;;;;;;;;;;5001722;28;20459;-83
2020/12/20 14:11:01;;;;;;;17.33;13.50;;;;;;;;;;5003430;28;20465;-82
2020/12/20 14:13:28;;;;;;;17.17;15.30;;;;;;;;;;5003417;28;20173;-83
2020/12/20 14:15:54;;;;;;;20.80;16.80;;;;;;;;;;5003116;28;20419;-83
2020/12/20 14:18:21;;;;;;;16.97;15.27;;;;;;;;;;5002825;28;20404;-83
2020/12/20 14:20:47;;;;;;;18.00;15.63;;;;;;;;;;5004418;28;20404;-83
2020/12/20 14:23:13;;;;;;;18.80;16.23;;;;;;;;;;5001929;28;20416;-84
2020/12/20 14:25:39;;;;;;;19.63;17.40;;;;;;;;;;5002411;28;20854;-83
2020/12/20 14:28:06;;;;;;;19.93;14.30;;;;;;;;;;4999430;28;20470;-83
2020/12/20 14:30:32;;;;;;;17.77;15.97;;;;;;;;;;4993313;28;20479;-83
2020/12/20 14:32:58;;;;;;;22.50;17.10;;;;;;;;;;5005292;28;20424;-82
2020/12/20 14:35:24;;;;;;;20.23;18.37;;;;;;;;;;5004977;28;20420;-83
2020/12/20 14:37:51;;;;;;;127.57;85.57;;;;;;;;;;5021771;28;20399;-84
2020/12/20 14:40:17;;;;;;;25.80;18.63;;;;;;;;;;5021079;28;20428;-83
2020/12/20 14:42:43;;;;;;;17.43;15.60;;;;;;;;;;5011900;28;20459;-83
2020/12/20 14:45:10;;;;;;;21.30;18.57;;;;;;;;;;5006917;28;20463;-82
2020/12/20 14:47:39;;;;;;;17.47;15.60;;;;;;;;;;5007103;28;20438;-85
2020/12/20 14:50:06;;;;;;;18.53;16.77;;;;;;;;;;5013035;28;20403;-84
2020/12/20 14:56:46;;;;;;;;;;;;;;;;;;;;;
2020/12/20 14:59:26;;;;;;;16.03;14.10;;;;;;;;;;5007515;28;20510;-82
2020/12/20 15:01:52;;;;;;;16.50;14.80;;;;;;;;;;5006642;28;20510;-82